createdAt,value
2022-09-04T00:02:52.564Z,100
2022-09-04T00:08:39.420Z,100
2022-09-04T00:14:19.906Z,100
2022-09-04T00:20:00.376Z,100
2022-09-04T00:25:40.763Z,100
2022-09-04T00:31:21.320Z,100
2022-09-04T00:37:02.978Z,100
2022-09-04T00:42:43.080Z,100
2022-09-04T00:48:23.426Z,100
2022-09-04T00:54:04.402Z,100
2022-09-04T00:59:44.617Z,100
2022-09-04T01:05:26.575Z,100
2022-09-04T01:11:09.499Z,100
2022-09-04T01:16:50.334Z,100
2022-09-04T01:22:31.623Z,100
2022-09-04T01:28:11.983Z,100
2022-09-04T01:33:52.435Z,100
2022-09-04T01:39:32.729Z,100
2022-09-04T01:45:14.397Z,100
2022-09-04T01:50:57.519Z,100
2022-09-04T01:56:37.605Z,100
2022-09-04T02:02:17.777Z,100
2022-09-04T02:07:58.719Z,100
2022-09-04T02:13:38.924Z,100
2022-09-04T02:19:19.353Z,100
2022-09-04T02:24:59.536Z,100
2022-09-04T02:30:39.726Z,100
2022-09-04T02:36:20.286Z,100
2022-09-04T02:42:00.570Z,100
2022-09-04T02:47:40.896Z,100
2022-09-04T02:53:21.279Z,100
2022-09-04T02:59:01.669Z,100
2022-09-04T03:04:41.907Z,100
2022-09-04T03:10:22.145Z,100
2022-09-04T03:16:02.735Z,100
2022-09-04T03:21:44.051Z,100
2022-09-04T03:27:24.555Z,100
2022-09-04T03:33:04.663Z,100
2022-09-04T03:38:44.750Z,100
2022-09-04T03:44:25.209Z,100
2022-09-04T03:50:05.585Z,100
2022-09-04T03:55:45.794Z,100
2022-09-04T04:01:26.592Z,100
2022-09-04T04:07:07.260Z,100
2022-09-04T04:12:50.247Z,100
2022-09-04T04:18:30.610Z,100
2022-09-04T04:24:11.118Z,100
2022-09-04T04:29:51.263Z,100
2022-09-04T04:35:31.485Z,100
2022-09-04T04:41:11.840Z,100
2022-09-04T04:46:52.256Z,100
2022-09-04T04:52:33.078Z,100
2022-09-04T04:58:13.423Z,100
2022-09-04T05:03:53.768Z,100
2022-09-04T05:09:34.144Z,100
2022-09-04T05:15:14.374Z,100
2022-09-04T05:20:54.773Z,100
2022-09-04T05:26:35.253Z,100
2022-09-04T05:32:15.508Z,100
2022-09-04T05:37:56.030Z,100
2022-09-04T05:43:36.582Z,100
2022-09-04T05:49:17.243Z,100
2022-09-04T05:54:58.071Z,100
2022-09-04T06:00:38.618Z,100
2022-09-04T06:06:19.397Z,100
2022-09-04T06:12:00.537Z,100
2022-09-04T06:17:41.382Z,100
2022-09-04T06:23:21.893Z,100
2022-09-04T06:29:06.091Z,100
2022-09-04T06:34:46.578Z,100
2022-09-04T06:40:27.051Z,100
2022-09-04T06:46:07.471Z,100
2022-09-04T06:51:48.523Z,100
2022-09-04T06:57:29.904Z,100
2022-09-04T07:03:10.408Z,100
2022-09-04T07:08:50.707Z,100
2022-09-04T07:14:31.025Z,100
2022-09-04T07:20:14.841Z,100
2022-09-04T07:25:55.476Z,100
2022-09-04T07:31:36.186Z,100
2022-09-04T07:37:16.738Z,100
2022-09-04T07:42:59.136Z,100
2022-09-04T07:48:39.517Z,100
2022-09-04T07:54:23.205Z,100
2022-09-04T08:00:04.462Z,100
2022-09-04T08:05:44.199Z,100
2022-09-04T08:11:24.692Z,100
2022-09-04T08:17:05.745Z,100
2022-09-04T08:22:45.711Z,100
2022-09-04T08:28:26.521Z,100
2022-09-04T08:34:07.024Z,100
2022-09-04T08:39:47.596Z,100
2022-09-04T08:45:28.890Z,100
2022-09-04T08:51:22.127Z,100
2022-09-04T08:57:02.167Z,100
2022-09-04T09:02:44.620Z,100
2022-09-04T09:08:32.012Z,100
2022-09-04T09:14:13.272Z,100
2022-09-04T09:19:53.701Z,100
2022-09-04T09:25:33.453Z,100
2022-09-04T09:31:14.165Z,100
2022-09-04T09:36:56.138Z,100
2022-09-04T09:42:35.817Z,100
2022-09-04T09:48:16.192Z,100
2022-09-04T09:53:56.616Z,100
2022-09-04T09:59:38.347Z,100
2022-09-04T10:05:18.877Z,100
2022-09-04T10:10:59.330Z,100
2022-09-04T10:16:39.763Z,100
2022-09-04T10:22:20.577Z,99.6
2022-09-04T10:28:01.122Z,92
2022-09-04T10:33:41.407Z,100
2022-09-04T10:39:21.514Z,100
2022-09-04T10:45:02.456Z,100
2022-09-04T10:50:46.200Z,100
2022-09-04T10:56:28.340Z,100
2022-09-04T11:02:08.631Z,100
2022-09-04T11:07:50.715Z,97.7
2022-09-04T11:13:32.020Z,80.4
2022-09-04T11:24:15.461Z,82
2022-09-04T11:29:57.962Z,71.4
2022-09-04T11:35:38.140Z,69.8
2022-09-04T11:41:18.022Z,91.2
2022-09-04T11:46:58.573Z,90.4
2022-09-04T11:52:38.653Z,93.8
2022-09-04T11:58:18.439Z,98.5
2022-09-04T12:03:58.950Z,96.2
2022-09-04T12:09:39.708Z,100
2022-09-04T12:15:20.047Z,99.6
2022-09-04T12:21:04.730Z,95.4
2022-09-04T12:26:57.045Z,94.5
2022-09-04T12:32:45.575Z,97.9
2022-09-04T12:38:26.320Z,98.6
2022-09-04T12:44:06.452Z,95.9
2022-09-04T12:49:46.459Z,100
2022-09-04T12:55:36.287Z,100
2022-09-04T13:01:17.483Z,100
2022-09-04T13:06:58.459Z,100
2022-09-04T13:12:39.393Z,78.7
2022-09-04T13:18:20.946Z,67.8
2022-09-04T13:24:01.490Z,61.7
2022-09-04T13:29:47.547Z,63.2
2022-09-04T13:35:28.241Z,69.4
2022-09-04T13:41:08.713Z,64.1
2022-09-04T13:46:54.535Z,72.3
2022-09-04T13:52:38.301Z,98.8
2022-09-04T13:58:19.000Z,100
2022-09-04T14:04:00.435Z,99.6
2022-09-04T14:09:47.640Z,94.5
2022-09-04T14:15:28.349Z,91.6
2022-09-04T14:21:12.357Z,83
2022-09-04T14:26:54.274Z,81
2022-09-04T14:32:39.038Z,75.9
2022-09-04T14:38:27.764Z,81.6
2022-09-04T14:44:08.467Z,83
2022-09-04T14:49:48.280Z,82.5
2022-09-04T14:55:28.477Z,93.4
2022-09-04T15:01:08.092Z,100
2022-09-04T15:07:12.004Z,100
2022-09-04T15:12:52.745Z,100
2022-09-04T15:18:33.109Z,100
2022-09-04T15:24:13.891Z,100
2022-09-04T15:29:54.933Z,100
2022-09-04T15:35:44.231Z,100
2022-09-04T15:41:24.519Z,100
2022-09-04T15:47:05.288Z,100
2022-09-04T15:52:45.868Z,100
2022-09-04T15:58:26.239Z,100
2022-09-04T16:04:07.101Z,100
2022-09-04T16:09:47.671Z,100
2022-09-04T16:15:28.199Z,100
2022-09-04T16:21:08.306Z,100
2022-09-04T16:26:49.072Z,100
2022-09-04T16:32:29.174Z,100
2022-09-04T16:38:09.262Z,100
2022-09-04T16:43:49.485Z,100
2022-09-04T16:49:29.638Z,100
2022-09-04T16:55:09.827Z,100
2022-09-04T17:00:49.868Z,100
2022-09-04T17:06:30.066Z,100
2022-09-04T17:12:11.165Z,100
2022-09-04T17:17:58.487Z,100
2022-09-04T17:29:33.568Z,100
2022-09-04T17:41:40.980Z,100
2022-09-04T17:47:53.954Z,100
2022-09-04T17:53:35.067Z,100
2022-09-04T17:59:15.285Z,100
2022-09-04T18:04:55.355Z,100
2022-09-04T18:10:36.263Z,100
2022-09-04T18:16:23.507Z,100
2022-09-04T18:22:32.147Z,100
2022-09-04T18:28:14.621Z,100
2022-09-04T18:39:54.916Z,100
2022-09-04T18:51:12.354Z,100
2022-09-04T18:57:06.939Z,100
2022-09-04T19:02:53.961Z,100
2022-09-04T19:08:34.372Z,100
2022-09-04T19:14:14.483Z,100
2022-09-04T19:19:56.432Z,100
2022-09-04T19:25:45.155Z,100
2022-09-04T19:31:35.583Z,100
2022-09-04T19:45:53.896Z,100
2022-09-04T19:58:33.757Z,100
2022-09-04T20:04:14.305Z,100
2022-09-04T20:09:58.329Z,100
2022-09-04T20:15:38.951Z,100
2022-09-04T20:21:19.413Z,100
2022-09-04T20:27:00.368Z,100
2022-09-04T20:32:40.781Z,100
2022-09-04T20:38:36.604Z,100
2022-09-04T20:44:23.373Z,100
2022-09-04T20:53:06.869Z,100
2022-09-04T21:03:32.073Z,100
2022-09-04T21:09:14.115Z,100
2022-09-04T21:14:54.053Z,100
2022-09-04T21:21:00.838Z,100
2022-09-04T21:26:44.617Z,100
2022-09-04T21:32:27.131Z,100
2022-09-04T21:38:10.310Z,100
2022-09-04T21:43:50.540Z,100
2022-09-04T21:49:31.100Z,100
2022-09-04T22:02:54.215Z,100
2022-09-04T22:13:47.734Z,100
2022-09-04T22:19:39.940Z,100
2022-09-04T22:25:19.687Z,100
2022-09-04T22:31:00.171Z,100
2022-09-04T22:36:40.815Z,100
2022-09-04T22:42:21.060Z,100
2022-09-04T22:48:01.329Z,100
2022-09-04T22:53:41.553Z,100
2022-09-04T22:59:27.753Z,100
2022-09-04T23:05:11.313Z,100
2022-09-04T23:14:07.397Z,100
2022-09-04T23:26:57.122Z,100
2022-09-04T23:32:46.224Z,100
2022-09-04T23:38:26.245Z,100
2022-09-04T23:44:06.609Z,100
2022-09-04T23:49:47.213Z,100
2022-09-04T23:55:49.251Z,100
